Airfield :
LOGIN :

Register | Disclaimer

   EN    FR    IT 

 










Legend :    VFR   Marginal VFR   IFR   Intensive IFR   Very Intensive IFR
Visi :
Ceiling :
>= 8 km
>= 3000ft
5 to 8 km
1000 to 3000 ft
1500m to 5 km
500 to 1000 ft
800 to 1500m
200 to 500 ft
< 800m
< 200 ft
Symbols :   Thunderstorms  Fog  Heavy snow  Heavy precipitations  Wind > 20 kt
SIGMETs :     Misc.  Thunderstorms  Icing  Turbulence  Mountain Waves  Volcanic Ashes







- Airport Elevation : 821 ft
- IATA code : LYS
- Download approach charts


LFLL - Lyon St Exupéry / Satolas

CURRENT METAR :
  • 200700Z 30007KT 9999 BKN030 13/12 Q1009 RERA NOSIG

EXPIRED METARs :
  • 200630Z 33006KT 9000 FEW016 BKN032 12/12 Q1008 RERA NOSIG
  • 200600Z 32008KT 7000 -RA SCT014 BKN018 OVC030 13/12 Q1008 TEMPO RA
  • 200530Z 33006KT 8000 -RA FEW016 BKN022 BKN034 13/11 Q1008 NOSIG
  • 200500Z 32006KT 9999 FEW022 SCT031 BKN034 13/11 Q1008 NOSIG
  • 200430Z 30005KT 9999 FEW022 BKN031 OVC054 13/11 Q1007 NOSIG

TAF TAF LFLL
Valid from the 20 at 06:00 until the 21 at 12:00 UTC


200500Z 2006/2112 31012KT 9999 BKN030
PROB30
TEMPO 2006/2008 RA
FM201100 32012KT 9999 SCT030
PROB40
TEMPO 2011/2014 SHRA
TEMPO 2014/2022 4500 SHRA SCT030TCU
PROB30
TEMPO 2101/2105 RA BKN015
BECMG 2105/2107 BKN015
BECMG 2107/2109 SCT020
BECMG 2110/2112 NSC
No reported NOTAMs for that airfield.



MET'MAP, your aeronautical weather chart ! - Copyright ORBIFLY December 2007 - Disclaimer

ORBIFLY MET'MAP TEAM :

Programming & Development : Alexandra Zaïnal
Concept & Development : Baudouin d'Aumeries
Co-Development & Prog : Marc-Olivier Méhu
Technical & hardware support : Manuel Goepfert

Contact : metmap@orbifly.com




SOURCES & CREDITS :

   NOAA